createdAt,value
2023-05-23T00:01:55.226Z,67.45
2023-05-23T00:04:22.654Z,67.14
2023-05-23T00:06:50.904Z,67.34
2023-05-23T00:09:18.212Z,67.36
2023-05-23T00:11:45.568Z,67.27
2023-05-23T00:14:16.135Z,67.27
2023-05-23T00:16:44.935Z,67.39
2023-05-23T00:19:15.085Z,67.20
2023-05-23T00:21:48.761Z,67.21
2023-05-23T00:24:18.790Z,67.15
2023-05-23T00:26:46.696Z,67.05
2023-05-23T00:29:16.553Z,67.24
2023-05-23T00:31:47.196Z,67.04
2023-05-23T00:34:20.299Z,67.04
2023-05-23T00:36:48.162Z,67.10
2023-05-23T00:39:20.113Z,67.28
2023-05-23T00:41:51.978Z,67.40
2023-05-23T00:44:23.160Z,67.66
2023-05-23T00:46:53.292Z,67.67
2023-05-23T00:49:20.639Z,67.62
2023-05-23T00:51:49.598Z,67.87
2023-05-23T00:54:35.103Z,68.04
2023-05-23T00:57:02.332Z,67.93
2023-05-23T00:59:29.555Z,68.03
2023-05-23T01:01:57.437Z,68.21
2023-05-23T01:04:26.572Z,68.55
2023-05-23T01:06:55.222Z,69.60
2023-05-23T01:09:22.308Z,70.24
2023-05-23T01:12:17.358Z,70.40
2023-05-23T01:15:02.887Z,71.49
2023-05-23T01:17:53.220Z,72.59
2023-05-23T01:20:22.720Z,73.77
2023-05-23T01:23:01.111Z,74.81
2023-05-23T01:25:50.416Z,75.53
2023-05-23T01:28:19.425Z,77.25
2023-05-23T01:30:48.424Z,78.11
2023-05-23T01:33:18.389Z,78.89
2023-05-23T01:35:45.455Z,80.00
2023-05-23T01:38:12.593Z,80.83
2023-05-23T01:40:39.554Z,81.74
2023-05-23T01:43:06.571Z,82.61
2023-05-23T01:45:33.854Z,83.21
2023-05-23T01:48:01.045Z,83.56
2023-05-23T01:50:28.006Z,84.21
2023-05-23T01:52:56.155Z,84.73
2023-05-23T01:55:24.339Z,85.32
2023-05-23T01:57:51.752Z,85.71
2023-05-23T02:00:19.920Z,86.35
2023-05-23T02:04:54.679Z,87.28
2023-05-23T02:07:23.708Z,88.00
2023-05-23T02:09:50.960Z,88.35
2023-05-23T02:12:18.237Z,88.55
2023-05-23T02:14:45.603Z,88.73
2023-05-23T02:17:15.385Z,88.58
2023-05-23T02:19:42.912Z,88.48
2023-05-23T02:22:10.157Z,88.26
2023-05-23T02:24:37.232Z,87.94
2023-05-23T02:27:04.870Z,87.63
2023-05-23T02:29:33.964Z,87.44
2023-05-23T02:32:01.127Z,86.40
2023-05-23T02:34:28.366Z,85.40
2023-05-23T02:36:55.621Z,84.52
2023-05-23T02:39:22.919Z,83.40
2023-05-23T02:41:50.970Z,82.89
2023-05-23T02:44:19.814Z,82.40
2023-05-23T02:46:47.142Z,81.83
2023-05-23T02:49:14.538Z,80.89
2023-05-23T02:58:15.320Z,78.31
2023-05-23T03:00:44.327Z,77.74
2023-05-23T03:03:12.222Z,77.57
2023-05-23T03:05:39.917Z,77.07
2023-05-23T03:08:07.504Z,76.79
2023-05-23T03:10:35.485Z,76.29
2023-05-23T03:13:02.730Z,75.90
2023-05-23T03:15:31.618Z,75.87
2023-05-23T03:17:58.848Z,75.72
2023-05-23T03:20:26.264Z,75.82
2023-05-23T03:22:55.403Z,75.91
2023-05-23T03:25:23.820Z,76.62
2023-05-23T03:27:51.423Z,77.53
2023-05-23T03:30:19.329Z,78.35
2023-05-23T03:32:47.218Z,80.01
2023-05-23T03:35:15.109Z,80.96
2023-05-23T03:37:42.553Z,82.79
2023-05-23T03:40:10.699Z,84.38
2023-05-23T03:42:39.428Z,86.16
2023-05-23T03:45:07.454Z,86.61
2023-05-23T03:47:35.084Z,86.77
2023-05-23T03:50:02.575Z,86.68
2023-05-23T03:52:30.744Z,86.63
2023-05-23T03:54:58.113Z,87.15
2023-05-23T03:57:25.581Z,87.66
2023-05-23T03:59:53.357Z,88.14
2023-05-23T04:02:22.387Z,88.26
2023-05-23T04:04:49.881Z,88.40
2023-05-23T04:07:17.633Z,88.49
2023-05-23T04:09:45.605Z,88.19
2023-05-23T04:12:14.256Z,87.61
2023-05-23T04:14:41.801Z,86.99
2023-05-23T04:17:09.742Z,86.65
2023-05-23T04:19:38.606Z,86.02
2023-05-23T04:22:06.327Z,86.15
2023-05-23T04:24:33.745Z,85.73
2023-05-23T04:27:01.430Z,85.17
2023-05-23T04:29:31.746Z,84.40
2023-05-23T04:31:59.382Z,83.95
2023-05-23T04:34:27.287Z,83.66
2023-05-23T04:36:54.703Z,83.13
2023-05-23T04:39:21.872Z,82.67
2023-05-23T04:42:09.394Z,82.41
2023-05-23T04:44:47.302Z,82.40
2023-05-23T04:47:22.617Z,81.43
2023-05-23T04:50:02.247Z,81.03
2023-05-23T04:52:33.416Z,80.83
2023-05-23T04:55:01.359Z,81.38
2023-05-23T04:57:28.814Z,81.51
2023-05-23T04:59:57.247Z,80.70
2023-05-23T05:02:24.439Z,80.51
2023-05-23T05:04:51.551Z,80.70
2023-05-23T05:07:18.638Z,80.57
2023-05-23T05:09:46.929Z,80.10
2023-05-23T05:12:14.519Z,79.92
2023-05-23T05:14:41.582Z,79.61
2023-05-23T05:17:09.080Z,79.06
2023-05-23T05:19:44.239Z,78.77
2023-05-23T05:22:11.276Z,78.04
2023-05-23T05:24:40.788Z,77.95
2023-05-23T05:27:09.622Z,77.94
2023-05-23T05:29:36.766Z,78.27
2023-05-23T05:32:04.201Z,78.56
2023-05-23T05:34:31.698Z,78.61
2023-05-23T05:36:59.559Z,79.00
2023-05-23T05:39:26.749Z,78.92
2023-05-23T05:41:54.760Z,79.94
2023-05-23T05:44:22.356Z,80.96
2023-05-23T05:46:51.938Z,81.87
2023-05-23T05:49:19.353Z,82.30
2023-05-23T05:51:46.504Z,82.94
2023-05-23T05:54:13.527Z,83.49
2023-05-23T05:56:40.774Z,83.36
2023-05-23T05:59:07.895Z,83.59
2023-05-23T06:01:36.288Z,84.24
2023-05-23T06:04:03.688Z,85.02
2023-05-23T06:06:32.469Z,85.52
2023-05-23T06:08:59.889Z,86.19
2023-05-23T06:11:28.100Z,86.84
2023-05-23T06:13:55.255Z,87.40
2023-05-23T06:16:23.673Z,87.60
2023-05-23T06:18:51.139Z,87.77
2023-05-23T06:21:18.644Z,87.88
2023-05-23T06:23:50.751Z,87.54
2023-05-23T06:26:17.921Z,87.28
2023-05-23T06:28:45.118Z,87.10
2023-05-23T06:31:12.771Z,87.05
2023-05-23T06:33:39.807Z,86.48
2023-05-23T06:36:07.401Z,86.32
2023-05-23T06:38:34.938Z,86.15
2023-05-23T06:41:02.498Z,85.68
2023-05-23T06:43:30.676Z,84.10
2023-05-23T06:46:12.801Z,83.75
2023-05-23T06:48:39.941Z,83.38
2023-05-23T06:51:07.048Z,81.39
2023-05-23T06:53:34.453Z,80.12
2023-05-23T06:56:01.794Z,80.27
2023-05-23T06:58:30.254Z,80.86
2023-05-23T07:00:58.440Z,80.66
2023-05-23T07:03:28.157Z,80.44
2023-05-23T07:05:57.976Z,79.98
2023-05-23T07:08:26.071Z,80.41
2023-05-23T07:11:00.468Z,80.51
2023-05-23T07:13:50.113Z,81.24
2023-05-23T07:16:22.335Z,82.32
2023-05-23T07:18:58.540Z,83.43
2023-05-23T07:21:26.070Z,84.10
2023-05-23T07:23:53.161Z,84.81
2023-05-23T07:26:21.002Z,85.67
2023-05-23T07:28:51.720Z,86.08
2023-05-23T07:31:19.057Z,86.33
2023-05-23T07:33:46.944Z,85.86
2023-05-23T07:36:19.933Z,86.18
2023-05-23T07:38:47.206Z,86.09
2023-05-23T07:41:14.411Z,86.11
2023-05-23T07:43:43.503Z,86.46
2023-05-23T07:46:11.780Z,86.80
2023-05-23T07:48:39.060Z,86.05
2023-05-23T07:51:06.468Z,84.63
2023-05-23T07:53:35.010Z,84.14
2023-05-23T07:56:03.400Z,83.44
2023-05-23T07:58:33.460Z,83.64
2023-05-23T08:01:00.744Z,84.39
2023-05-23T08:03:50.081Z,85.55
2023-05-23T08:06:21.401Z,85.12
2023-05-23T08:08:48.717Z,83.19
2023-05-23T08:11:16.037Z,81.56
2023-05-23T08:13:46.718Z,79.66
2023-05-23T08:16:35.254Z,78.32
2023-05-23T08:19:02.772Z,77.38
2023-05-23T08:21:30.072Z,75.95
2023-05-23T08:23:57.379Z,75.54
2023-05-23T08:26:24.534Z,76.19
2023-05-23T08:28:51.555Z,77.22
2023-05-23T08:31:18.913Z,77.75
2023-05-23T08:33:47.811Z,77.05
2023-05-23T08:36:14.996Z,77.45
2023-05-23T08:38:43.698Z,77.49
2023-05-23T08:41:23.369Z,76.45
2023-05-23T08:43:53.231Z,75.80
2023-05-23T08:46:26.299Z,75.84
2023-05-23T08:48:55.065Z,76.38
2023-05-23T08:51:23.696Z,76.21
2023-05-23T08:53:53.110Z,76.88
2023-05-23T08:56:20.715Z,77.60
2023-05-23T08:58:49.136Z,78.64
2023-05-23T09:01:20.542Z,79.15
2023-05-23T09:03:51.166Z,79.05
2023-05-23T09:06:31.017Z,79.69
2023-05-23T09:08:58.659Z,80.38
2023-05-23T09:11:26.066Z,80.64
2023-05-23T09:13:53.928Z,81.33
2023-05-23T09:16:22.134Z,81.64
2023-05-23T09:18:55.967Z,82.13
2023-05-23T09:21:27.524Z,83.14
2023-05-23T09:24:18.071Z,84.34
2023-05-23T09:26:48.059Z,85.05
2023-05-23T09:29:19.704Z,85.36
2023-05-23T09:31:46.888Z,85.96
2023-05-23T09:34:14.280Z,86.09
2023-05-23T09:36:44.310Z,85.63
2023-05-23T09:39:12.078Z,86.02
2023-05-23T09:41:39.330Z,86.22
2023-05-23T09:44:09.374Z,86.28
2023-05-23T09:46:38.679Z,86.43
2023-05-23T09:49:16.623Z,86.26
2023-05-23T09:51:44.511Z,86.11
2023-05-23T09:54:12.630Z,85.37
2023-05-23T09:56:41.857Z,83.54
2023-05-23T09:59:09.365Z,82.36
2023-05-23T10:01:36.757Z,79.14
2023-05-23T10:04:04.070Z,77.36
2023-05-23T10:06:53.233Z,77.90
2023-05-23T10:09:22.048Z,77.36
2023-05-23T10:12:08.124Z,77.37
2023-05-23T10:14:35.909Z,77.66
2023-05-23T10:17:08.054Z,77.99
2023-05-23T10:19:55.002Z,77.01
2023-05-23T10:22:22.340Z,76.27
2023-05-23T10:24:49.683Z,76.75
2023-05-23T10:27:17.162Z,77.34
2023-05-23T10:29:44.550Z,77.62
2023-05-23T10:32:12.058Z,77.90
2023-05-23T10:34:44.921Z,78.25
2023-05-23T10:37:16.616Z,78.70
2023-05-23T10:39:58.077Z,78.56
2023-05-23T10:42:36.448Z,78.40
2023-05-23T10:45:22.984Z,78.12
2023-05-23T10:47:53.804Z,78.06
2023-05-23T10:50:37.453Z,77.51
2023-05-23T10:53:05.416Z,76.68
2023-05-23T10:55:37.371Z,76.99
2023-05-23T10:58:11.218Z,77.39
2023-05-23T11:00:38.939Z,75.92
2023-05-23T11:03:09.081Z,74.12
2023-05-23T11:05:43.516Z,72.93
2023-05-23T11:08:17.789Z,72.81
2023-05-23T11:11:00.660Z,73.28
2023-05-23T11:13:52.459Z,71.55
2023-05-23T11:16:30.694Z,70.74
2023-05-23T11:19:20.020Z,70.92
2023-05-23T11:21:49.981Z,71.07
2023-05-23T11:24:20.222Z,70.96
2023-05-23T11:27:04.241Z,70.76
2023-05-23T11:29:32.152Z,70.05
2023-05-23T11:31:59.162Z,70.14
2023-05-23T11:34:26.630Z,70.28
2023-05-23T11:36:56.641Z,70.17
2023-05-23T11:39:23.826Z,70.05
2023-05-23T11:41:59.703Z,69.54
2023-05-23T11:44:26.966Z,70.22
2023-05-23T11:47:05.131Z,70.27
2023-05-23T11:49:34.038Z,69.80
2023-05-23T11:52:02.167Z,69.62
2023-05-23T11:54:30.006Z,69.68
2023-05-23T11:56:57.446Z,70.05
2023-05-23T11:59:26.497Z,70.66
2023-05-23T12:01:53.557Z,71.42
2023-05-23T12:04:20.898Z,71.20
2023-05-23T12:06:48.712Z,70.17
2023-05-23T12:09:16.305Z,69.95
2023-05-23T12:11:43.628Z,70.22
2023-05-23T12:14:14.655Z,70.31
2023-05-23T12:16:49.588Z,70.58
2023-05-23T12:19:17.321Z,70.96
2023-05-23T12:21:45.752Z,71.13
2023-05-23T12:24:22.842Z,71.43
2023-05-23T12:26:51.422Z,71.53
2023-05-23T12:29:22.741Z,71.93
2023-05-23T12:31:51.024Z,72.61
2023-05-23T12:34:18.085Z,72.97
2023-05-23T12:36:49.413Z,73.37
2023-05-23T12:39:24.206Z,73.74
2023-05-23T12:41:51.310Z,74.25
2023-05-23T12:44:18.481Z,74.67
2023-05-23T12:46:46.262Z,74.23
2023-05-23T12:49:13.718Z,73.97
2023-05-23T12:51:41.045Z,73.45
2023-05-23T12:54:08.956Z,72.62
2023-05-23T12:56:36.068Z,72.46
2023-05-23T12:59:03.448Z,72.35
2023-05-23T13:01:31.188Z,72.28
2023-05-23T13:03:58.340Z,72.35
2023-05-23T13:06:25.569Z,72.25
2023-05-23T13:08:52.787Z,72.46
2023-05-23T13:11:19.841Z,71.81
2023-05-23T13:13:46.953Z,71.48
2023-05-23T13:16:14.845Z,71.43
2023-05-23T13:18:42.183Z,71.46
2023-05-23T13:21:09.587Z,71.37
2023-05-23T13:23:39.115Z,71.05
2023-05-23T13:26:06.707Z,70.65
2023-05-23T13:28:34.314Z,70.58
2023-05-23T13:31:03.472Z,70.45
2023-05-23T13:33:31.156Z,70.16
2023-05-23T13:35:58.730Z,69.85
2023-05-23T13:38:27.747Z,69.72
2023-05-23T13:40:54.959Z,69.06
2023-05-23T13:43:22.665Z,68.26
2023-05-23T13:45:49.831Z,68.57
2023-05-23T13:48:16.951Z,68.42
2023-05-23T13:50:44.177Z,68.32
2023-05-23T13:53:16.669Z,67.63
2023-05-23T13:55:47.532Z,67.42
2023-05-23T13:58:14.556Z,68.30
2023-05-23T14:00:41.919Z,69.00
2023-05-23T14:03:09.857Z,68.98
2023-05-23T14:05:37.508Z,69.35
2023-05-23T14:08:04.961Z,68.82
2023-05-23T14:10:33.565Z,68.99
2023-05-23T14:13:01.004Z,68.88
2023-05-23T14:15:28.613Z,68.82
2023-05-23T14:17:56.398Z,68.81
2023-05-23T14:21:39.109Z,68.93
2023-05-23T14:24:07.287Z,69.50
2023-05-23T14:26:34.437Z,70.20
2023-05-23T14:29:01.666Z,71.01
2023-05-23T14:31:29.131Z,71.85
2023-05-23T14:33:56.932Z,72.49
2023-05-23T14:36:26.485Z,72.97
2023-05-23T14:38:53.845Z,73.05
2023-05-23T14:41:22.227Z,73.24
2023-05-23T14:43:49.593Z,73.80
2023-05-23T14:46:18.096Z,73.72
2023-05-23T14:48:45.468Z,72.97
2023-05-23T14:51:23.684Z,71.96
2023-05-23T14:53:57.953Z,71.83
2023-05-23T14:56:25.228Z,72.36
2023-05-23T14:58:52.388Z,72.90
2023-05-23T15:01:19.725Z,72.97
2023-05-23T15:03:47.242Z,73.19
2023-05-23T15:06:14.643Z,73.45
2023-05-23T15:08:44.445Z,73.06
2023-05-23T15:11:12.162Z,73.81
2023-05-23T15:13:39.856Z,74.53
2023-05-23T15:16:07.459Z,74.29
2023-05-23T15:18:40.594Z,74.02
2023-05-23T15:21:08.672Z,74.70
2023-05-23T15:23:36.132Z,75.70
2023-05-23T15:26:04.630Z,77.85
2023-05-23T15:28:32.942Z,80.35
2023-05-23T15:31:00.462Z,82.86
2023-05-23T15:33:27.646Z,84.99
2023-05-23T15:35:55.430Z,86.76
2023-05-23T15:38:22.821Z,88.16
2023-05-23T15:40:53.084Z,89.81
2023-05-23T15:43:21.411Z,91.01
2023-05-23T15:45:51.291Z,92.22
2023-05-23T15:48:20.143Z,93.47
2023-05-23T15:50:48.816Z,94.40
2023-05-23T15:53:16.146Z,95.41
2023-05-23T15:55:44.155Z,96.18
2023-05-23T15:58:12.775Z,97.12
2023-05-23T16:00:40.326Z,98.11
2023-05-23T16:03:08.101Z,99.39
2023-05-23T16:05:36.630Z,100.00
2023-05-23T16:08:03.909Z,100.00
2023-05-23T16:10:31.443Z,100.00
2023-05-23T16:12:58.807Z,100.00
2023-05-23T16:15:26.086Z,100.00
2023-05-23T16:17:53.840Z,100.00
2023-05-23T16:20:22.584Z,100.00
2023-05-23T16:22:50.464Z,100.00
2023-05-23T16:25:18.638Z,100.00
2023-05-23T16:27:46.327Z,100.00
2023-05-23T16:30:13.706Z,100.00
2023-05-23T16:32:42.397Z,100.00
2023-05-23T16:35:12.875Z,100.00
2023-05-23T16:37:40.118Z,100.00
2023-05-23T16:40:08.168Z,100.00
2023-05-23T16:42:37.310Z,100.00
2023-05-23T16:45:05.426Z,100.00
2023-05-23T16:47:32.722Z,100.00
2023-05-23T16:50:00.229Z,100.00
2023-05-23T16:52:27.685Z,100.00
2023-05-23T16:54:56.196Z,100.00
2023-05-23T16:57:25.473Z,100.00
2023-05-23T16:59:52.957Z,100.00
2023-05-23T17:02:20.621Z,100.00
2023-05-23T17:04:50.992Z,100.00
2023-05-23T17:07:19.533Z,100.00
2023-05-23T17:09:47.221Z,100.00
2023-05-23T17:12:15.789Z,100.00
2023-05-23T17:14:43.525Z,100.00
2023-05-23T17:17:11.132Z,100.00
2023-05-23T17:19:38.995Z,100.00
2023-05-23T17:22:08.703Z,100.00
2023-05-23T17:24:37.357Z,100.00
2023-05-23T17:27:05.853Z,100.00
2023-05-23T17:29:33.711Z,100.00
2023-05-23T17:32:01.360Z,100.00
2023-05-23T17:34:30.422Z,100.00
2023-05-23T17:36:58.216Z,100.00
2023-05-23T17:39:25.781Z,100.00
2023-05-23T17:41:53.337Z,100.00
2023-05-23T17:44:21.009Z,100.00
2023-05-23T17:46:48.514Z,100.00
2023-05-23T17:49:16.189Z,100.00
2023-05-23T17:51:43.586Z,100.00
2023-05-23T17:54:10.921Z,100.00
2023-05-23T17:56:38.424Z,100.00
2023-05-23T17:59:06.102Z,100.00
2023-05-23T18:01:34.459Z,100.00
2023-05-23T18:04:02.349Z,100.00
2023-05-23T18:06:30.751Z,100.00
2023-05-23T18:08:57.930Z,100.00
2023-05-23T18:11:27.610Z,100.00
2023-05-23T18:13:54.989Z,100.00
2023-05-23T18:16:23.000Z,100.00
2023-05-23T18:18:50.378Z,100.00
2023-05-23T18:21:18.352Z,100.00
2023-05-23T18:23:46.001Z,100.00
2023-05-23T18:26:13.794Z,100.00
2023-05-23T18:28:41.468Z,100.00
2023-05-23T18:31:08.763Z,100.00
2023-05-23T18:33:36.485Z,100.00
2023-05-23T18:36:04.349Z,100.00
2023-05-23T18:38:32.825Z,100.00
2023-05-23T18:41:00.902Z,100.00
2023-05-23T18:43:28.495Z,100.00
2023-05-23T18:45:57.803Z,100.00
2023-05-23T18:48:27.099Z,100.00
2023-05-23T18:50:54.367Z,100.00
2023-05-23T18:53:22.772Z,100.00
2023-05-23T18:55:50.273Z,100.00
2023-05-23T18:58:17.586Z,100.00
2023-05-23T19:00:45.675Z,100.00
2023-05-23T19:03:13.514Z,100.00
2023-05-23T19:05:42.276Z,100.00
2023-05-23T19:08:09.750Z,100.00
2023-05-23T19:10:37.960Z,100.00
2023-05-23T19:13:06.653Z,100.00
2023-05-23T19:15:34.018Z,100.00
2023-05-23T19:18:02.843Z,100.00
2023-05-23T19:20:30.354Z,100.00
2023-05-23T19:22:57.942Z,100.00
2023-05-23T19:25:25.580Z,100.00
2023-05-23T19:27:53.134Z,100.00
2023-05-23T19:30:21.826Z,100.00
2023-05-23T19:32:49.207Z,100.00
2023-05-23T19:35:17.896Z,100.00
2023-05-23T19:37:45.850Z,100.00
2023-05-23T19:40:13.917Z,100.00
2023-05-23T19:42:41.672Z,100.00
2023-05-23T19:45:09.987Z,100.00
2023-05-23T19:47:38.490Z,100.00
2023-05-23T19:50:07.484Z,100.00
2023-05-23T19:52:34.778Z,100.00
2023-05-23T19:55:03.723Z,100.00
2023-05-23T19:57:32.071Z,100.00
2023-05-23T19:59:59.503Z,100.00
2023-05-23T20:02:27.864Z,100.00
2023-05-23T20:04:55.182Z,100.00
2023-05-23T20:07:22.595Z,100.00
2023-05-23T20:09:49.979Z,100.00
2023-05-23T20:12:17.728Z,100.00
2023-05-23T20:14:44.957Z,100.00
2023-05-23T20:17:12.443Z,100.00
2023-05-23T20:19:40.448Z,100.00
2023-05-23T20:22:07.639Z,100.00
2023-05-23T20:24:35.202Z,100.00
2023-05-23T20:27:04.604Z,100.00
2023-05-23T20:29:34.784Z,100.00
2023-05-23T20:32:02.399Z,100.00
2023-05-23T20:34:29.753Z,100.00
2023-05-23T20:36:58.130Z,100.00
2023-05-23T20:39:25.951Z,100.00
2023-05-23T20:41:54.147Z,100.00
2023-05-23T20:44:21.678Z,100.00
2023-05-23T20:46:49.203Z,100.00
2023-05-23T20:49:16.990Z,100.00
2023-05-23T20:51:44.445Z,100.00
2023-05-23T20:54:13.076Z,100.00
2023-05-23T20:56:41.448Z,100.00
2023-05-23T20:59:12.387Z,100.00
2023-05-23T21:01:40.806Z,100.00
2023-05-23T21:04:08.080Z,100.00
2023-05-23T21:06:37.042Z,100.00
2023-05-23T21:09:04.668Z,100.00
2023-05-23T21:11:32.233Z,100.00
2023-05-23T21:13:59.713Z,100.00
2023-05-23T21:16:27.385Z,100.00
2023-05-23T21:18:54.740Z,100.00
2023-05-23T21:21:22.162Z,100.00
2023-05-23T21:23:49.549Z,100.00
2023-05-23T21:26:16.823Z,100.00
2023-05-23T21:28:44.121Z,100.00
2023-05-23T21:31:13.013Z,100.00
2023-05-23T21:33:40.733Z,100.00
2023-05-23T21:36:08.091Z,100.00
2023-05-23T21:38:39.913Z,100.00
2023-05-23T21:41:07.137Z,100.00
2023-05-23T21:43:34.837Z,100.00
2023-05-23T21:46:02.225Z,100.00
2023-05-23T21:48:29.708Z,100.00
2023-05-23T21:50:56.837Z,100.00
2023-05-23T21:53:25.890Z,100.00
2023-05-23T21:55:53.254Z,100.00
2023-05-23T21:58:20.464Z,100.00
2023-05-23T22:00:48.029Z,100.00
2023-05-23T22:03:15.553Z,100.00
2023-05-23T22:05:42.947Z,100.00
2023-05-23T22:08:10.501Z,100.00
2023-05-23T22:10:37.919Z,100.00
2023-05-23T22:13:06.447Z,100.00
2023-05-23T22:15:35.736Z,100.00
2023-05-23T22:18:08.038Z,100.00
2023-05-23T22:20:39.200Z,100.00
2023-05-23T22:23:07.708Z,100.00
2023-05-23T22:25:35.498Z,100.00
2023-05-23T22:28:02.773Z,100.00
2023-05-23T22:30:30.120Z,100.00
2023-05-23T22:32:57.946Z,100.00
2023-05-23T22:35:25.641Z,100.00
2023-05-23T22:37:52.798Z,100.00
2023-05-23T22:40:19.901Z,100.00
2023-05-23T22:42:47.489Z,100.00
2023-05-23T22:45:15.599Z,100.00
2023-05-23T22:47:43.668Z,100.00
2023-05-23T22:50:12.362Z,100.00
2023-05-23T22:52:40.593Z,100.00
2023-05-23T22:55:08.896Z,100.00
2023-05-23T22:57:36.044Z,100.00
2023-05-23T23:00:04.195Z,100.00
2023-05-23T23:02:32.044Z,100.00
2023-05-23T23:05:01.315Z,100.00
2023-05-23T23:07:28.668Z,100.00
2023-05-23T23:09:56.450Z,100.00
2023-05-23T23:12:24.479Z,100.00
2023-05-23T23:14:53.014Z,100.00
2023-05-23T23:17:21.699Z,100.00
2023-05-23T23:19:50.108Z,100.00
2023-05-23T23:22:18.992Z,100.00
2023-05-23T23:24:47.722Z,100.00
2023-05-23T23:27:15.243Z,100.00
2023-05-23T23:29:42.436Z,100.00
2023-05-23T23:32:09.874Z,100.00
2023-05-23T23:34:37.409Z,100.00
2023-05-23T23:37:05.368Z,100.00
2023-05-23T23:39:33.036Z,100.00
2023-05-23T23:42:00.500Z,100.00
2023-05-23T23:44:27.679Z,100.00
2023-05-23T23:46:55.361Z,100.00
2023-05-23T23:49:22.676Z,100.00
2023-05-23T23:51:50.108Z,100.00
2023-05-23T23:54:17.251Z,100.00
2023-05-23T23:56:44.437Z,100.00
2023-05-23T23:59:11.914Z,100.00
